Aviation Digital Data Service (ADDS)

Output produced by METARs form (2302 UTC 21 November 2017)
found at http://aviationweather.gov/adds/metars/
 
KNEW 212253Z 11006KT 10SM CLR 19/16 A2997 RMK AO2 SLP142 T01890156